메인 페이지
METAR-TAF:

METAR-TAF

공항 :

플로리아노폴리스, 산타카타리나, 브라질

위도: 27-40S, 경도: 048-33W, 고도: 5m

현재 날씨관측

예보는 27분 전, 19:00시(UTC)에 발표되었습니다.
남남동9kt
온도 22°C
습도 88%
기압 1014 hPa
시정 10km 이상
고도 3000ft 상공 구름 보통
고도 3500ft 상공 구름 조금, 타워링 적운.
고도 10000ft 상공 구름 많음

METAR: SBFL 201900Z 15009KT 9999 SCT030 FEW035TCU BKN100 22/20 Q1014

시각: 16:27 (19:27 UTC)

예보

예보는 3 시간 57분 전, 15:30시(UTC)에 발표되었습니다.
예보 대상 시간: 20일 18시부터 21일 18시까지 (UTC)
동남동7kt
시정 10km 이상
고도 2000ft 상공 구름 보통
확률 40% :
일시적
20일 18시부터 20일 20시까지 (UTC)
시정: 8000m
고도 1000ft 상공 구름 많음
전환 중
20일 20시부터 20일 22시까지 (UTC)
7kt
시정 10km 이상
전환 중
21일 04시부터 21일 06시까지 (UTC)
5kt
고도 1500ft 상공 구름 많음
전환 중
21일 12시부터 21일 14시까지 (UTC)
8kt
고도 3000ft 상공 구름 보통

TAF: SBFL 201530Z 2018/2118 12007KT 9999 SCT020 TN19/2108Z TX23/2117Z PROB40 TEMPO 2018/2020 8000 RA BKN010 BECMG 2020/2022 01007KT 9999 NSW BKN0 12 BECMG 2104/2106 35005KT BKN015 BECMG 2112/2114 01008KT SCT030 RMK PD W

4,000개 이상의 공항 관측 자료 및 예보 (METAR 및 TAF 보고).

지도상에서 검색 가능한 기상관측소가 노란 점과 빨간 점으로 표시되어 있습니다.

기상관측소 명을 보려면 표시 위로 마우스를 이동하세요.

날씨 관측과 예보를 보려면 클릭하세요.

지도 변경 : 확대하려면 엑스 표시가 있는 녹색 버튼, 축소하려면 빼기 표시가 있는 녹색 버튼, 다음 페이지의 지도를 보려면 녹색 화살표를 클릭하세요.


METAR-TAF: